Time;durP1;ratioP1;P1;durP2;ratioP2;P2;SDS_P1;SDS_P2;PMS_P1;PMS_P2;Temp;Humidity;BMP_temperature;BMP_pressure;BME280_temperature;BME280_humidity;BME280_pressure;Samples;Min_cycle;Max_cycle;Signal;HPM_P1;HPM_P2
2022/12/16 00:02:08;;;;;;;;;26.50;21.00;;;;;2.37;59.57;100221.94;6150970;23;45753;-75
2022/12/16 00:04:33;;;;;;;;;24.25;20.00;;;;;2.23;59.55;100184.66;6150521;23;45495;-74
2022/12/16 00:06:58;;;;;;;;;21.25;21.25;;;;;2.41;59.49;100217.47;6151305;23;45553;-75
2022/12/16 00:09:26;;;;;;;;;28.75;21.50;;;;;2.42;59.29;100216.56;6149643;23;46417;-76
2022/12/16 00:11:51;;;;;;;;;27.00;22.50;;;;;2.43;59.20;100219.06;6150190;23;45509;-74
2022/12/16 00:14:17;;;;;;;;;21.00;19.00;;;;;2.41;59.37;100233.81;6149371;23;45728;-74
2022/12/16 00:20:09;;;;;;;;;28.00;24.00;;;;;2.40;59.37;100239.06;6149665;23;45689;-71
2022/12/16 00:22:34;;;;;;;;;38.00;25.00;;;;;2.21;59.44;100213.19;6149800;23;45766;-72
2022/12/16 00:25:02;;;;;;;;;29.75;25.00;;;;;2.40;59.83;100244.22;6150334;23;45749;-72
2022/12/16 00:27:28;;;;;;;;;27.50;26.50;;;;;2.38;59.82;100244.28;6149491;23;46693;-74
2022/12/16 00:29:53;;;;;;;;;28.50;25.50;;;;;2.37;59.55;100244.38;6122204;23;46951;-71
2022/12/16 00:32:18;;;;;;;;;35.00;27.50;;;;;2.35;59.79;100247.00;6149239;23;45478;-73
2022/12/16 00:34:44;;;;;;;;;31.50;27.75;;;;;2.29;59.69;100230.91;6124189;23;45834;-73
2022/12/16 00:37:12;;;;;;;;;35.50;27.50;;;;;2.25;59.85;100230.22;6150547;23;46460;-71
2022/12/16 00:39:37;;;;;;;;;36.25;28.50;;;;;2.38;60.20;100256.34;6123575;23;46324;-73
2022/12/16 00:42:06;;;;;;;;;30.75;27.50;;;;;2.38;60.57;100256.34;6149415;23;45567;-73
2022/12/16 00:44:37;;;;;;;;;35.50;31.00;;;;;2.38;59.96;100264.97;6124526;23;45707;-75
2022/12/16 00:50:25;;;;;;;;;35.75;29.50;;;;;2.19;60.14;100234.81;6153300;23;45706;-77
2022/12/16 00:52:50;;;;;;;;;33.25;28.50;;;;;2.32;60.14;100251.47;6150148;23;45620;-77
2022/12/16 00:55:16;;;;;;;;;30.00;27.00;;;;;2.22;60.20;100237.25;6150041;23;45718;-74
2022/12/16 00:57:42;;;;;;;;;28.50;24.50;;;;;2.31;60.50;100253.22;6148964;23;45670;-73
2022/12/16 01:06:37;;;;;;;;;25.50;23.00;;;;;2.27;60.54;100256.81;6030738;23;45532;-74
2022/12/16 01:09:02;;;;;;;;;36.50;30.75;;;;;2.08;60.70;100230.94;6049882;23;46463;-78
2022/12/16 01:11:28;;;;;;;;;29.00;27.75;;;;;2.16;60.53;100247.88;6059155;23;45436;-72
2022/12/16 01:13:53;;;;;;;;;33.50;32.00;;;;;2.30;60.73;100276.53;6058473;23;45488;-70
2022/12/16 01:16:18;;;;;;;;;36.75;31.50;;;;;2.24;60.77;100258.72;6058703;23;45558;-74
2022/12/16 01:18:46;;;;;;;;;25.00;24.25;;;;;2.27;60.71;100268.94;6058673;23;47271;-75
2022/12/16 01:21:14;;;;;;;;;31.50;24.75;;;;;2.29;60.92;100273.13;6058377;23;46099;-75
2022/12/16 01:23:39;;;;;;;;;26.50;24.00;;;;;2.30;61.21;100277.38;6058589;23;45559;-72
2022/12/16 01:26:05;;;;;;;;;35.00;31.00;;;;;2.27;61.56;100277.50;6058745;23;45916;-74
2022/12/16 01:28:30;;;;;;;;;31.50;27.00;;;;;2.26;60.98;100286.19;6059348;23;45537;-75
2022/12/16 01:31:00;;;;;;;;;32.25;26.00;;;;;2.29;61.34;100291.19;6058746;23;45982;-75
2022/12/16 01:33:26;;;;;;;;;36.00;28.50;;;;;2.31;61.30;100294.56;6059912;23;46042;-75
2022/12/16 01:35:58;;;;;;;;;30.50;25.50;;;;;2.31;61.07;100296.31;6059836;23;45667;-76
2022/12/16 01:38:23;;;;;;;;;27.75;24.75;;;;;2.26;61.29;100293.09;6059086;23;46679;-77
2022/12/16 01:40:54;;;;;;;;;27.00;21.75;;;;;2.20;60.98;100283.84;6125703;23;46261;-75
2022/12/16 01:43:35;;;;;;;;;30.25;21.50;;;;;2.34;61.37;100316.84;6120202;23;45855;-75
2022/12/16 01:46:10;;;;;;;;;42.00;29.50;;;;;2.28;61.36;100307.59;6120232;23;45918;-74
2022/12/16 01:49:09;;;;;;;;;30.50;26.00;;;;;2.35;61.95;100318.53;6121270;23;46805;-73
2022/12/16 01:51:37;;;;;;;;;35.00;28.00;;;;;2.18;61.50;100289.97;6121672;23;46075;-76
2022/12/16 01:54:12;;;;;;;;;33.00;30.00;;;;;2.30;61.95;100326.47;6121025;23;45793;-75
2022/12/16 01:56:44;;;;;;;;;34.00;28.50;;;;;2.24;61.81;100324.16;6120814;23;45854;-74
2022/12/16 01:59:14;;;;;;;;;32.50;25.25;;;;;2.35;61.78;100331.47;6119434;23;47610;-75
2022/12/16 02:01:41;;;;;;;;;27.50;24.00;;;;;2.35;61.78;100342.63;6119439;23;46075;-72
2022/12/16 02:04:07;;;;;;;;;27.25;24.00;;;;;2.24;61.94;100326.72;6119873;23;45703;-76
2022/12/16 02:06:35;;;;;;;;;33.25;27.50;;;;;2.18;61.58;100319.22;6119838;23;45593;-78
2022/12/16 02:09:07;;;;;;;;;31.00;27.75;;;;;2.29;61.61;100342.88;6139649;23;46737;-76
2022/12/16 02:11:38;;;;;;;;;33.00;24.75;;;;;2.34;61.95;100355.63;6148620;23;46558;-77
2022/12/16 02:14:36;;;;;;;;;33.25;27.75;;;;;1.79;61.85;100272.63;6149369;23;45915;-71
2022/12/16 02:17:39;;;;;;;;;34.00;31.00;;;;;1.96;61.74;100300.34;6149019;23;45589;-75
2022/12/16 02:20:17;;;;;;;;;29.75;21.00;;;;;2.24;62.23;100354.31;6149580;23;45548;-73
2022/12/16 02:23:04;;;;;;;;;32.50;29.00;;;;;2.19;62.19;100353.66;6148841;23;46848;-74
2022/12/16 02:26:00;;;;;;;;;30.75;25.00;;;;;2.13;62.12;100347.00;6122760;23;46273;-75
2022/12/16 02:28:59;;;;;;;;;41.25;30.50;;;;;2.13;62.56;100343.56;6149461;23;45847;-72
2022/12/16 02:31:24;;;;;;;;;33.75;29.00;;;;;2.10;62.05;100355.75;6122444;23;47258;-74
2022/12/16 02:34:07;;;;;;;;;36.50;30.75;;;;;2.09;62.40;100361.81;6149557;23;45620;-75
2022/12/16 02:36:49;;;;;;;;;34.50;32.00;;;;;1.97;62.63;100335.63;6150419;23;45825;-76
2022/12/16 02:39:27;;;;;;;;;36.25;32.00;;;;;1.90;62.54;100324.69;6150701;23;45573;-74
2022/12/16 02:42:18;;;;;;;;;36.25;32.00;;;;;2.09;61.98;100353.22;6149929;23;46550;-74
2022/12/16 02:44:56;;;;;;;;;36.00;28.50;;;;;1.84;62.58;100309.44;6149044;23;46082;-77
2022/12/16 02:50:53;;;;;;;;;30.00;25.00;;;;;2.10;62.88;100347.16;6151135;23;45592;-76
2022/12/16 02:53:19;;;;;;;;;35.75;28.00;;;;;1.83;62.53;100304.34;6124368;23;47421;-74
2022/12/16 02:56:09;;;;;;;;;42.00;29.50;;;;;2.10;62.16;100349.72;6150834;23;46082;-73
2022/12/16 02:58:57;;;;;;;;;40.25;33.00;;;;;2.00;62.73;100340.63;6150322;23;45772;-74
2022/12/16 03:01:28;;;;;;;;;43.50;39.00;;;;;2.02;62.33;100360.34;6148535;23;45602;-72
2022/12/16 03:07:20;;;;;;;;;39.50;30.00;;;;;1.93;63.14;100365.91;6149203;23;45967;-73
2022/12/16 03:09:48;;;;;;;;;31.50;27.50;;;;;1.91;62.61;100365.09;6148687;23;45671;-74
2022/12/16 03:12:16;;;;;;;;;40.25;37.50;;;;;1.87;63.00;100367.88;6149102;23;45755;-72
2022/12/16 03:14:52;;;;;;;;;38.75;31.50;;;;;1.83;62.95;100366.31;6148586;23;46334;-76
2022/12/16 03:17:35;;;;;;;;;47.00;36.50;;;;;1.82;63.51;100374.97;6122099;23;45949;-73
2022/12/16 03:20:54;;;;;;;;;48.75;37.25;;;;;1.76;63.25;100368.28;6148242;23;45838;-74
2022/12/16 03:23:26;;;;;;;;;42.50;34.00;;;;;1.72;63.49;100373.66;6057268;23;45428;-74
2022/12/16 03:25:58;;;;;;;;;47.00;35.75;;;;;1.67;64.06;100379.00;6058515;23;45653;-76
2022/12/16 03:28:41;;;;;;;;;40.25;33.25;;;;;1.63;64.15;100370.50;6033426;23;47213;-72
2022/12/16 03:31:29;;;;;;;;;40.25;32.25;;;;;1.60;63.95;100373.22;6058095;23;45636;-75
2022/12/16 03:34:20;;;;;;;;;42.00;33.25;;;;;1.57;64.13;100383.63;6057894;23;45616;-75
2022/12/16 03:36:52;;;;;;;;;45.25;38.75;;;;;1.50;64.02;100374.47;6057803;23;47243;-73
2022/12/16 03:39:22;;;;;;;;;52.00;42.75;;;;;1.52;63.96;100382.13;6057471;23;46690;-74
2022/12/16 03:41:50;;;;;;;;;37.00;33.75;;;;;1.39;64.08;100371.44;6033919;23;45733;-76
2022/12/16 03:44:19;;;;;;;;;43.25;35.00;;;;;1.48;64.73;100396.06;6059640;23;45773;-72
2022/12/16 03:46:44;;;;;;;;;41.50;39.50;;;;;1.38;64.23;100380.06;6057978;23;46303;-75
2022/12/16 03:49:09;;;;;;;;;45.50;37.50;;;;;1.43;64.16;100395.38;6057623;23;47223;-75
2022/12/16 03:51:35;;;;;;;;;49.25;39.00;;;;;1.38;64.66;100392.13;6058250;23;45806;-76
2022/12/16 03:54:00;;;;;;;;;42.00;37.50;;;;;1.39;64.28;100391.25;6060059;23;45499;-74
2022/12/16 03:56:25;;;;;;;;;50.50;40.00;;;;;1.38;64.60;100398.16;6035829;23;46264;-74
2022/12/16 03:58:51;;;;;;;;;51.25;42.50;;;;;1.38;64.99;100398.16;6086782;23;46064;-73
2022/12/16 04:01:16;;;;;;;;;42.75;38.00;;;;;1.40;64.86;100400.69;6148943;23;45737;-73
2022/12/16 04:03:42;;;;;;;;;40.50;36.25;;;;;1.40;65.17;100392.94;6148396;23;45757;-71
2022/12/16 04:06:07;;;;;;;;;48.25;38.75;;;;;1.42;64.68;100410.03;6150332;23;45572;-73
2022/12/16 04:08:33;;;;;;;;;34.00;32.50;;;;;1.41;65.11;100407.50;6123010;23;46126;-72
2022/12/16 04:24:48;;;;;;;;;41.75;36.25;;;;;1.40;65.30;100421.31;6150297;23;45625;-73
2022/12/16 04:27:26;;;;;;;;;37.00;33.25;;;;;1.37;65.18;100418.84;6149409;23;47133;-76
